Time;durP1;ratioP1;P1;durP2;ratioP2;P2;SDS_P1;SDS_P2;PMS_P1;PMS_P2;Temp;Humidity;BMP_temperature;BMP_pressure;BME280_temperature;BME280_humidity;BME280_pressure;Samples;Min_cycle;Max_cycle;Signal;HPM_P1;HPM_P2
2023/07/04 00:02:20;;;;;;;22.90;8.47;;;16.70;99.90;;;;;;5033385;28;20213;-71
2023/07/04 00:05:09;;;;;;;18.13;8.03;;;16.70;99.90;;;;;;5033317;28;20194;-71
2023/07/04 00:07:57;;;;;;;21.10;7.73;;;16.70;99.90;;;;;;5033252;28;20237;-71
2023/07/04 00:10:46;;;;;;;15.67;8.13;;;16.70;99.90;;;;;;5033321;28;20596;-71
2023/07/04 00:13:33;;;;;;;22.20;8.77;;;16.70;99.90;;;;;;5033201;28;20202;-71
2023/07/04 00:16:21;;;;;;;17.43;8.07;;;16.70;99.90;;;;;;5033147;28;20724;-71
2023/07/04 00:19:08;;;;;;;18.90;8.33;;;16.70;99.90;;;;;;5032953;28;20201;-71
2023/07/04 00:21:57;;;;;;;14.53;7.87;;;16.70;99.90;;;;;;5033079;28;20236;-71
2023/07/04 00:24:44;;;;;;;17.13;7.90;;;16.70;99.90;;;;;;5033161;28;20200;-71
2023/07/04 00:27:33;;;;;;;17.93;8.00;;;16.70;99.90;;;;;;5032920;28;20204;-71
2023/07/04 00:30:20;;;;;;;15.10;7.97;;;16.70;99.90;;;;;;5033024;28;20620;-71
2023/07/04 00:33:07;;;;;;;17.67;8.27;;;16.70;99.90;;;;;;5032864;28;20199;-71
2023/07/04 00:36:00;;;;;;;19.60;8.20;;;16.70;99.90;;;;;;5032916;28;20254;-71
2023/07/04 00:38:51;;;;;;;15.47;8.20;;;16.70;99.90;;;;;;5032960;28;20301;-71
2023/07/04 00:41:38;;;;;;;15.30;8.20;;;16.70;99.90;;;;;;5032884;28;20211;-71
2023/07/04 00:44:30;;;;;;;17.73;8.00;;;16.60;99.90;;;;;;5032929;28;20899;-71
2023/07/04 00:47:21;;;;;;;18.90;8.77;;;16.60;99.90;;;;;;5057385;28;20350;-71
2023/07/04 00:50:09;;;;;;;18.80;8.73;;;16.60;99.90;;;;;;5071437;28;20226;-71
2023/07/04 00:52:56;;;;;;;17.97;8.50;;;16.60;99.90;;;;;;5071612;28;20198;-71
2023/07/04 00:55:45;;;;;;;20.57;8.70;;;16.60;99.90;;;;;;5072106;28;20224;-71
2023/07/04 00:58:32;;;;;;;18.53;8.63;;;16.60;99.90;;;;;;5071458;28;20202;-71
2023/07/04 01:01:21;;;;;;;22.80;8.93;;;16.60;99.90;;;;;;5072065;28;20204;-72
2023/07/04 01:04:08;;;;;;;15.07;7.90;;;16.60;99.90;;;;;;5072066;28;20237;-71
2023/07/04 01:07:08;;;;;;;15.87;7.37;;;16.50;99.90;;;;;;5072009;28;20242;-71
2023/07/04 01:09:59;;;;;;;23.10;9.37;;;16.40;99.90;;;;;;5071347;28;20203;-71
2023/07/04 01:12:46;;;;;;;19.90;8.47;;;16.50;99.90;;;;;;5071632;28;20202;-72
2023/07/04 01:15:33;;;;;;;21.33;9.13;;;16.40;99.90;;;;;;5071681;28;20678;-71
2023/07/04 01:18:23;;;;;;;16.63;8.90;;;16.40;99.90;;;;;;5071914;28;20234;-71
2023/07/04 01:21:11;;;;;;;16.50;8.77;;;16.40;99.90;;;;;;5071152;28;20193;-71
2023/07/04 01:24:03;;;;;;;18.83;8.70;;;16.40;99.90;;;;;;5071301;28;20676;-71
2023/07/04 01:26:51;;;;;;;16.40;8.20;;;16.30;99.90;;;;;;5071247;28;20323;-71
2023/07/04 01:29:39;;;;;;;20.37;9.60;;;16.20;99.90;;;;;;5071767;28;20290;-72
2023/07/04 01:32:27;;;;;;;21.73;9.33;;;16.20;99.90;;;;;;5075026;28;20196;-71
2023/07/04 01:35:14;;;;;;;18.07;8.90;;;16.20;99.90;;;;;;5074653;28;20216;-71
2023/07/04 01:38:01;;;;;;;22.77;9.47;;;16.10;99.90;;;;;;5074761;28;20217;-72
2023/07/04 01:40:48;;;;;;;18.63;9.60;;;16.00;99.90;;;;;;5075387;28;20200;-71
2023/07/04 01:43:37;;;;;;;20.87;9.80;;;16.00;99.90;;;;;;5074643;28;20590;-71
2023/07/04 01:46:25;;;;;;;24.20;9.50;;;15.90;99.90;;;;;;5069601;28;20236;-72
2023/07/04 01:49:12;;;;;;;16.77;9.03;;;15.90;99.90;;;;;;5054956;28;20261;-72
2023/07/04 01:51:59;;;;;;;22.93;10.27;;;15.70;99.90;;;;;;5055207;28;20202;-72
2023/07/04 01:54:46;;;;;;;23.10;9.30;;;15.70;99.90;;;;;;5055029;28;20614;-72
2023/07/04 01:57:34;;;;;;;23.33;10.13;;;15.60;99.90;;;;;;5054339;28;20201;-72
2023/07/04 02:00:23;;;;;;;24.10;9.73;;;15.60;99.90;;;;;;5055047;28;20200;-71
2023/07/04 02:03:10;;;;;;;17.93;9.27;;;15.60;99.90;;;;;;5054886;28;20208;-71
2023/07/04 02:05:58;;;;;;;25.27;9.93;;;15.50;99.90;;;;;;5054844;28;20563;-72
2023/07/04 02:08:45;;;;;;;20.27;10.20;;;15.50;99.90;;;;;;5054797;28;20254;-71
2023/07/04 02:11:32;;;;;;;21.37;10.20;;;15.60;99.90;;;;;;5054180;28;20204;-72
2023/07/04 02:14:19;;;;;;;21.83;10.27;;;15.50;99.90;;;;;;5054755;28;20212;-72
2023/07/04 02:17:08;;;;;;;25.27;10.60;;;15.50;99.90;;;;;;5054548;28;20220;-71
2023/07/04 02:19:55;;;;;;;23.07;10.93;;;15.40;99.90;;;;;;5054643;28;20204;-72
2023/07/04 02:22:43;;;;;;;20.17;10.20;;;15.40;99.90;;;;;;5054538;28;20197;-71
2023/07/04 02:25:30;;;;;;;22.60;10.83;;;15.30;99.90;;;;;;5053743;28;20204;-73
2023/07/04 02:28:17;;;;;;;25.27;10.60;;;15.30;99.90;;;;;;5054503;28;20203;-73
2023/07/04 02:31:05;;;;;;;23.03;11.10;;;15.30;99.90;;;;;;5053871;28;20201;-73
2023/07/04 02:33:53;;;;;;;22.27;10.63;;;15.20;99.90;;;;;;5053720;28;20736;-73
2023/07/04 02:36:41;;;;;;;26.43;12.03;;;15.10;99.90;;;;;;5053826;28;20225;-73
2023/07/04 02:39:29;;;;;;;23.10;11.27;;;15.20;99.90;;;;;;5053994;28;20268;-73
2023/07/04 02:42:16;;;;;;;27.13;11.07;;;15.10;99.90;;;;;;5052403;28;20250;-73
2023/07/04 02:45:06;;;;;;;28.50;13.07;;;15.10;99.90;;;;;;5053693;28;20201;-73
2023/07/04 02:47:53;;;;;;;24.33;12.17;;;15.10;99.90;;;;;;5071304;28;20202;-73
2023/07/04 02:50:42;;;;;;;24.83;12.70;;;15.00;99.90;;;;;;5074014;28;20210;-73
2023/07/04 02:53:29;;;;;;;28.87;11.90;;;14.90;99.90;;;;;;5073935;28;20697;-73
2023/07/04 02:56:16;;;;;;;28.90;13.13;;;14.90;99.90;;;;;;5072227;28;20225;-73
2023/07/04 02:59:03;;;;;;;25.90;12.83;;;14.90;99.90;;;;;;5072318;28;20204;-73
2023/07/04 03:01:52;;;;;;;22.57;12.30;;;14.90;99.90;;;;;;5074115;28;20196;-73
2023/07/04 03:04:39;;;;;;;24.57;12.43;;;14.90;99.90;;;;;;5072560;28;20666;-73
2023/07/04 03:07:27;;;;;;;28.53;12.33;;;14.90;99.90;;;;;;5073558;28;20201;-73
2023/07/04 03:10:18;;;;;;;24.97;13.20;;;14.80;99.90;;;;;;5071739;28;20671;-73
2023/07/04 03:13:09;;;;;;;29.07;13.63;;;14.80;99.90;;;;;;5073047;28;20570;-73
2023/07/04 03:15:56;;;;;;;28.93;12.93;;;14.80;99.90;;;;;;5072813;28;20213;-73
2023/07/04 03:18:47;;;;;;;24.93;12.30;;;14.80;99.90;;;;;;5071663;28;20216;-73
2023/07/04 03:21:39;;;;;;;27.73;12.93;;;14.80;99.90;;;;;;5072889;28;20231;-73
2023/07/04 03:24:32;;;;;;;31.70;13.73;;;14.70;99.90;;;;;;5072674;28;20210;-73
2023/07/04 03:27:24;;;;;;;29.10;13.37;;;14.80;99.90;;;;;;5072718;28;20211;-73
2023/07/04 03:30:16;;;;;;;25.33;13.80;;;14.80;99.90;;;;;;5072630;28;20192;-74
2023/07/04 03:33:07;;;;;;;26.43;12.60;;;14.70;99.90;;;;;;5072601;28;20667;-73
2023/07/04 03:35:58;;;;;;;24.90;12.93;;;14.80;99.90;;;;;;5072442;28;20223;-73
2023/07/04 03:38:46;;;;;;;26.90;13.27;;;14.90;99.90;;;;;;5072442;28;20233;-73
2023/07/04 03:41:34;;;;;;;24.70;12.87;;;15.00;99.90;;;;;;5071118;28;20344;-74
2023/07/04 03:44:22;;;;;;;27.33;12.73;;;15.00;99.90;;;;;;5073084;28;20207;-73
2023/07/04 03:47:09;;;;;;;24.80;12.47;;;15.20;99.90;;;;;;5060467;28;20197;-73
2023/07/04 03:49:57;;;;;;;22.23;12.30;;;15.20;99.90;;;;;;5052735;28;20259;-74
2023/07/04 03:52:44;;;;;;;31.20;14.33;;;15.30;99.90;;;;;;5052497;28;20210;-74
2023/07/04 03:55:31;;;;;;;29.97;14.27;;;15.30;99.90;;;;;;5052079;28;20202;-73
2023/07/04 03:58:22;;;;;;;24.97;13.53;;;15.40;99.90;;;;;;5052310;28;20556;-74
2023/07/04 04:01:10;;;;;;;26.83;13.20;;;15.50;99.90;;;;;;5052694;28;20203;-73
2023/07/04 04:03:57;;;;;;;26.60;13.43;;;15.60;99.90;;;;;;5052006;28;20208;-73
2023/07/04 04:06:45;;;;;;;24.53;13.37;;;15.70;99.90;;;;;;5052040;28;20190;-74
2023/07/04 04:09:32;;;;;;;27.50;13.63;;;15.80;99.90;;;;;;5052006;28;20201;-73
2023/07/04 04:12:19;;;;;;;26.03;13.03;;;15.90;99.90;;;;;;5052103;28;20204;-73
2023/07/04 04:15:09;;;;;;;27.27;14.10;;;16.00;99.90;;;;;;5051997;28;20230;-74
2023/07/04 04:17:56;;;;;;;26.83;13.30;;;16.10;99.90;;;;;;5052519;28;20201;-73
2023/07/04 04:20:43;;;;;;;29.33;15.77;;;16.20;99.90;;;;;;5051915;28;20201;-74
2023/07/04 04:23:30;;;;;;;35.83;17.67;;;16.30;99.90;;;;;;5052475;28;20204;-74
2023/07/04 04:26:24;;;;;;;35.97;16.77;;;16.40;99.90;;;;;;5052395;28;20200;-73
2023/07/04 04:29:11;;;;;;;32.43;15.90;;;16.60;99.90;;;;;;5052286;28;20573;-73
2023/07/04 04:32:00;;;;;;;40.30;18.73;;;16.70;99.90;;;;;;5052597;28;20670;-74
2023/07/04 04:34:47;;;;;;;42.83;17.70;;;16.70;99.90;;;;;;5052317;28;20268;-73
2023/07/04 04:37:35;;;;;;;34.40;17.33;;;16.90;99.90;;;;;;5052206;28;20697;-74
2023/07/04 04:40:22;;;;;;;30.40;16.80;;;17.10;99.90;;;;;;5052247;28;20254;-74
2023/07/04 04:43:09;;;;;;;34.87;17.33;;;17.20;99.90;;;;;;5052187;28;20208;-74
2023/07/04 04:45:57;;;;;;;31.47;16.80;;;17.40;99.90;;;;;;5052884;28;20320;-73
2023/07/04 04:48:46;;;;;;;32.40;16.30;;;17.50;99.90;;;;;;5072040;28;20749;-73
2023/07/04 04:51:33;;;;;;;42.67;16.93;;;17.70;99.90;;;;;;5072178;28;20203;-74
2023/07/04 04:54:22;;;;;;;31.97;15.87;;;17.80;99.90;;;;;;5072222;28;20201;-73
2023/07/04 04:57:10;;;;;;;30.47;15.63;;;17.90;99.90;;;;;;5070374;28;20221;-73
2023/07/04 04:59:59;;;;;;;28.87;15.13;;;18.00;99.90;;;;;;5072169;28;20194;-74
2023/07/04 05:02:46;;;;;;;33.60;15.20;;;18.10;99.90;;;;;;5072061;28;20206;-74
2023/07/04 05:05:34;;;;;;;35.00;14.60;;;18.20;99.90;;;;;;5074040;28;20209;-73
2023/07/04 05:08:22;;;;;;;38.40;14.60;;;18.30;99.90;;;;;;5074655;28;20227;-74
2023/07/04 05:11:09;;;;;;;34.37;15.07;;;18.40;99.90;;;;;;5075800;28;20195;-72
2023/07/04 05:13:56;;;;;;;33.13;15.27;;;18.50;99.90;;;;;;5075769;28;20247;-73
2023/07/04 05:16:43;;;;;;;30.30;14.17;;;18.50;99.90;;;;;;5075742;28;20223;-73
2023/07/04 05:19:30;;;;;;;31.17;13.80;;;18.60;99.90;;;;;;5076226;28;20196;-74
2023/07/04 05:22:19;;;;;;;34.67;14.67;;;18.70;99.90;;;;;;5075710;28;20226;-74
2023/07/04 05:25:07;;;;;;;31.47;14.03;;;18.90;99.90;;;;;;5073910;28;20678;-74
2023/07/04 05:27:54;;;;;;;30.10;13.63;;;19.10;99.90;;;;;;5073806;28;20207;-73
2023/07/04 05:30:41;;;;;;;31.73;14.47;;;19.10;99.90;;;;;;5075525;28;20282;-72
2023/07/04 05:33:28;;;;;;;27.67;14.27;;;19.10;99.90;;;;;;5075639;28;20201;-73
2023/07/04 05:36:17;;;;;;;31.77;14.60;;;18.80;99.90;;;;;;5074363;28;20226;-73
2023/07/04 05:39:07;;;;;;;35.30;14.47;;;19.00;99.90;;;;;;5075361;28;20246;-73
2023/07/04 05:41:54;;;;;;;31.67;14.87;;;19.10;99.90;;;;;;5075352;28;20235;-73
2023/07/04 05:44:41;;;;;;;35.60;15.13;;;19.20;99.90;;;;;;5073396;28;20292;-73
2023/07/04 05:47:28;;;;;;;31.50;13.90;;;19.20;99.90;;;;;;5061200;28;20200;-73
2023/07/04 05:50:15;;;;;;;30.03;14.00;;;19.40;99.90;;;;;;5054465;28;20243;-73
2023/07/04 05:53:02;;;;;;;38.03;14.77;;;19.60;99.90;;;;;;5055152;28;20201;-74
2023/07/04 05:55:51;;;;;;;27.73;13.93;;;19.60;99.90;;;;;;5054531;28;20201;-73
2023/07/04 05:58:39;;;;;;;35.03;14.10;;;19.70;99.90;;;;;;5054692;28;20201;-74
2023/07/04 06:01:28;;;;;;;35.57;13.33;;;19.80;99.90;;;;;;5054370;28;20293;-74
2023/07/04 06:04:15;;;;;;;32.47;14.33;;;19.90;99.90;;;;;;5054625;28;20582;-74
2023/07/04 06:07:02;;;;;;;33.73;13.33;;;20.00;99.90;;;;;;5054381;28;20671;-73
2023/07/04 06:09:50;;;;;;;29.97;13.00;;;20.10;99.90;;;;;;5054834;28;20555;-73
2023/07/04 06:12:38;;;;;;;30.87;11.97;;;20.20;99.90;;;;;;5054118;28;20193;-74
2023/07/04 06:15:26;;;;;;;30.50;12.10;;;20.30;99.90;;;;;;5053826;28;20209;-72
2023/07/04 06:18:13;;;;;;;20.70;10.43;;;20.10;99.90;;;;;;5054556;28;20258;-73
2023/07/04 06:21:12;;;;;;;30.67;11.83;;;20.10;99.90;;;;;;5054566;28;20201;-72
2023/07/04 06:24:00;;;;;;;27.27;12.00;;;20.20;99.90;;;;;;5054010;28;20215;-73
2023/07/04 06:26:47;;;;;;;23.87;11.87;;;20.20;99.90;;;;;;5055130;28;20193;-73
2023/07/04 06:29:36;;;;;;;24.83;10.67;;;20.40;99.90;;;;;;5053880;28;20205;-73
2023/07/04 06:32:23;;;;;;;31.90;11.20;;;20.60;99.90;;;;;;5053891;28;20229;-73
2023/07/04 06:35:10;;;;;;;31.03;11.17;;;20.80;99.90;;;;;;5055030;28;20692;-73
2023/07/04 06:37:58;;;;;;;27.13;10.70;;;20.90;99.90;;;;;;5053583;28;20221;-73
2023/07/04 06:40:54;;;;;;;25.27;10.87;;;21.10;99.90;;;;;;5053680;28;20285;-72
2023/07/04 06:43:43;;;;;;;24.77;11.63;;;21.10;99.90;;;;;;5054199;28;20286;-72
2023/07/04 06:46:32;;;;;;;19.93;10.70;;;21.00;99.90;;;;;;5059426;28;20193;-73
2023/07/04 06:49:19;;;;;;;23.83;10.27;;;21.20;99.90;;;;;;5073171;28;20224;-73
2023/07/04 06:52:07;;;;;;;24.00;10.27;;;21.60;99.90;;;;;;5074025;28;20245;-73
2023/07/04 06:54:55;;;;;;;21.13;9.63;;;21.60;99.90;;;;;;5072286;28;20228;-73
2023/07/04 06:57:43;;;;;;;29.37;10.20;;;21.70;99.90;;;;;;5073807;28;20205;-75
2023/07/04 07:00:30;;;;;;;19.27;9.03;;;21.60;99.90;;;;;;5072135;28;20207;-74
2023/07/04 07:03:19;;;;;;;27.63;9.83;;;21.60;99.90;;;;;;5073179;28;20204;-73
2023/07/04 07:06:07;;;;;;;21.77;9.40;;;21.50;99.90;;;;;;5073032;28;20200;-73
2023/07/04 07:08:55;;;;;;;22.37;9.20;;;21.60;99.90;;;;;;5073163;28;20211;-72
2023/07/04 07:11:42;;;;;;;22.50;8.60;;;21.60;99.90;;;;;;5073002;28;20684;-72
2023/07/04 07:14:29;;;;;;;22.23;9.20;;;21.60;99.90;;;;;;5072969;28;20196;-73
2023/07/04 07:17:17;;;;;;;18.90;9.00;;;21.60;99.90;;;;;;5072768;28;20254;-72
2023/07/04 07:20:06;;;;;;;23.83;9.30;;;21.80;99.90;;;;;;5073457;28;20291;-72
2023/07/04 07:22:53;;;;;;;17.40;8.13;;;21.90;99.90;;;;;;5072963;28;20323;-72
2023/07/04 07:25:41;;;;;;;25.50;9.03;;;22.10;99.90;;;;;;5072856;28;20205;-72
2023/07/04 07:28:29;;;;;;;17.87;7.87;;;22.40;99.90;;;;;;5072056;28;20655;-73
2023/07/04 07:31:18;;;;;;;22.37;8.67;;;22.70;99.90;;;;;;5072526;28;20200;-73
2023/07/04 07:34:05;;;;;;;22.40;8.83;;;22.80;99.90;;;;;;5072549;28;20200;-72
2023/07/04 07:36:54;;;;;;;22.47;8.60;;;22.70;99.90;;;;;;5072591;28;20584;-72
2023/07/04 07:39:42;;;;;;;17.70;7.47;;;22.80;99.90;;;;;;5072505;28;20220;-73
2023/07/04 07:42:30;;;;;;;19.73;8.00;;;22.70;99.90;;;;;;5072986;28;20207;-72
2023/07/04 07:45:17;;;;;;;21.33;7.60;;;22.70;99.90;;;;;;5072935;28;20262;-72
2023/07/04 07:48:04;;;;;;;20.83;7.40;;;22.90;99.90;;;;;;5053355;28;20197;-73
2023/07/04 07:50:51;;;;;;;17.30;7.63;;;22.90;99.90;;;;;;5052991;28;20326;-72
2023/07/04 07:53:40;;;;;;;19.90;7.93;;;22.90;99.90;;;;;;5052873;28;20197;-75
2023/07/04 07:56:34;;;;;;;21.37;7.53;;;23.00;99.90;;;;;;5052787;28;20577;-72
2023/07/04 07:59:21;;;;;;;21.87;7.30;;;22.80;99.90;;;;;;5052893;28;20537;-72
2023/07/04 08:02:12;;;;;;;20.93;7.73;;;22.50;99.90;;;;;;5052737;28;20266;-73
2023/07/04 08:04:59;;;;;;;19.77;7.33;;;22.80;99.60;;;;;;5052741;28;20201;-74
2023/07/04 08:07:47;;;;;;;23.27;6.90;;;23.00;99.90;;;;;;5052645;28;20599;-73
2023/07/04 08:10:38;;;;;;;20.23;6.50;;;23.20;97.00;;;;;;5052610;28;20209;-73
2023/07/04 08:13:25;;;;;;;15.30;5.70;;;23.40;99.90;;;;;;5052546;28;20200;-75
2023/07/04 08:16:17;;;;;;;15.27;6.23;;;23.60;93.20;;;;;;5052651;28;20205;-73
2023/07/04 08:19:04;;;;;;;16.53;4.87;;;23.50;93.50;;;;;;5052505;28;20264;-74
2023/07/04 08:21:51;;;;;;;13.20;5.27;;;23.50;89.90;;;;;;5052470;28;20212;-73
2023/07/04 08:24:39;;;;;;;13.73;4.80;;;23.70;94.20;;;;;;5052499;28;20879;-73
2023/07/04 08:27:27;;;;;;;15.33;4.87;;;23.70;92.50;;;;;;5052363;28;20280;-73
2023/07/04 08:30:14;;;;;;;12.52;4.63;;;23.90;83.60;;;;;;5052664;28;20259;-73
2023/07/04 08:33:02;;;;;;;18.67;5.10;;;23.80;81.40;;;;;;5052383;28;20197;-75
2023/07/04 08:35:56;;;;;;;10.97;4.13;;;23.60;76.90;;;;;;5051674;28;20237;-72
2023/07/04 08:38:44;;;;;;;12.57;4.17;;;23.30;85.10;;;;;;5052833;28;20229;-72
2023/07/04 08:41:40;;;;;;;13.23;4.13;;;23.50;78.50;;;;;;5056447;28;20193;-72
2023/07/04 08:44:34;;;;;;;13.53;3.87;;;23.70;79.50;;;;;;5056464;28;20279;-77
2023/07/04 08:47:25;;;;;;;9.93;4.23;;;23.80;70.10;;;;;;5069022;28;20195;-72
2023/07/04 08:50:14;;;;;;;10.57;4.07;;;23.40;75.30;;;;;;5075596;28;20235;-74
2023/07/04 08:53:06;;;;;;;7.23;3.40;;;23.50;71.60;;;;;;5075706;28;20230;-72
2023/07/04 08:55:57;;;;;;;8.37;3.10;;;23.60;73.00;;;;;;5075751;28;20211;-75
2023/07/04 08:58:48;;;;;;;8.88;3.33;;;24.00;70.00;;;;;;5075482;28;20262;-72
2023/07/04 09:01:41;;;;;;;7.80;3.03;;;24.00;69.90;;;;;;5074434;28;20197;-74
2023/07/04 09:04:35;;;;;;;7.17;2.90;;;24.00;67.40;;;;;;5075523;28;20878;-71
2023/07/04 09:07:25;;;;;;;6.63;2.40;;;23.80;68.50;;;;;;5075419;28;20199;-73
2023/07/04 09:10:22;;;;;;;11.20;3.20;;;23.90;64.40;;;;;;5075492;28;20257;-72
2023/07/04 09:13:11;;;;;;;7.57;3.17;;;24.00;68.30;;;;;;5075283;28;20192;-72
2023/07/04 09:16:00;;;;;;;5.80;2.80;;;24.10;65.60;;;;;;5075248;28;20251;-73
2023/07/04 09:18:52;;;;;;;7.85;3.20;;;24.20;67.00;;;;;;5075207;28;20208;-72
2023/07/04 09:21:42;;;;;;;7.20;3.45;;;24.30;69.40;;;;;;5075194;28;20333;-72
2023/07/04 09:24:29;;;;;;;8.43;3.80;;;24.00;68.20;;;;;;5075687;28;20196;-72
2023/07/04 09:27:17;;;;;;;12.43;3.65;;;24.30;71.00;;;;;;5075779;28;20200;-74
2023/07/04 09:30:06;;;;;;;12.48;4.10;;;24.50;63.40;;;;;;5075034;28;20660;-72
2023/07/04 09:32:53;;;;;;;10.40;4.00;;;24.00;65.50;;;;;;5074977;28;20203;-71
2023/07/04 09:35:42;;;;;;;8.82;3.20;;;23.60;66.30;;;;;;5075494;28;20298;-74
2023/07/04 09:38:50;;;;;;;17.70;4.40;;;23.60;65.10;;;;;;5074741;28;20689;-71
2023/07/04 09:41:39;;;;;;;13.32;4.07;;;23.80;73.30;;;;;;5076043;28;20234;-72
2023/07/04 09:44:27;;;;;;;11.90;3.83;;;24.00;69.80;;;;;;5074803;28;20254;-71
2023/07/04 09:47:22;;;;;;;12.10;3.88;;;24.50;72.50;;;;;;5062552;28;20205;-71
2023/07/04 09:50:11;;;;;;;9.13;3.65;;;24.50;63.30;;;;;;5054703;28;20225;-77
2023/07/04 09:53:07;;;;;;;8.95;3.85;;;24.00;65.50;;;;;;5055153;28;20193;-72
2023/07/04 09:55:59;;;;;;;9.23;3.80;;;24.10;77.20;;;;;;5055349;28;20609;-71
2023/07/04 09:58:46;;;;;;;11.55;4.30;;;24.70;72.50;;;;;;5054982;28;20248;-74
2023/07/04 10:01:33;;;;;;;8.60;4.30;;;24.80;64.00;;;;;;5055004;28;20220;-77
2023/07/04 10:04:25;;;;;;;7.53;4.15;;;24.80;65.20;;;;;;5055001;28;20209;-77
2023/07/04 10:07:13;;;;;;;9.52;4.18;;;24.70;59.90;;;;;;5054789;28;20198;-71
2023/07/04 10:10:03;;;;;;;11.27;4.63;;;24.70;59.50;;;;;;5054891;28;20239;-71
2023/07/04 10:12:50;;;;;;;13.02;4.80;;;24.90;60.30;;;;;;5054869;28;20243;-71
2023/07/04 10:15:40;;;;;;;13.00;5.35;;;24.70;62.50;;;;;;5054779;28;20197;-73
2023/07/04 10:18:28;;;;;;;11.57;5.63;;;24.50;61.50;;;;;;5054660;28;20217;-71
2023/07/04 10:21:15;;;;;;;12.50;6.03;;;24.40;60.80;;;;;;5054586;28;20242;-71
2023/07/04 10:24:03;;;;;;;13.18;6.25;;;24.50;57.90;;;;;;5054592;28;20331;-71
2023/07/04 10:26:54;;;;;;;13.27;5.95;;;24.80;63.20;;;;;;5054532;28;20201;-72
2023/07/04 10:29:42;;;;;;;12.70;6.20;;;25.00;60.00;;;;;;5054472;28;20613;-71
2023/07/04 10:32:30;;;;;;;13.18;6.45;;;25.50;59.70;;;;;;5054442;28;20201;-74
2023/07/04 10:35:20;;;;;;;14.10;6.78;;;25.60;57.70;;;;;;5054301;28;20197;-71
2023/07/04 10:38:17;;;;;;;12.40;6.70;;;25.30;58.50;;;;;;5054134;28;20225;-72
2023/07/04 10:41:19;;;;;;;16.70;6.10;;;25.50;63.50;;;;;;5054286;28;20208;-71
2023/07/04 10:44:10;;;;;;;11.85;6.45;;;25.20;57.80;;;;;;5054154;28;20243;-71
2023/07/04 10:46:58;;;;;;;13.20;6.65;;;25.30;63.00;;;;;;5063744;28;20247;-71
2023/07/04 10:49:47;;;;;;;13.77;6.88;;;24.90;58.40;;;;;;5073302;28;20224;-72
2023/07/04 10:52:36;;;;;;;14.98;7.55;;;25.40;61.60;;;;;;5073517;28;20393;-75
2023/07/04 10:55:25;;;;;;;16.63;7.85;;;25.30;57.00;;;;;;5073355;28;20200;-75
2023/07/04 10:58:13;;;;;;;14.90;7.53;;;25.80;56.80;;;;;;5073264;28;20205;-75
2023/07/04 11:01:04;;;;;;;17.85;7.07;;;26.10;58.10;;;;;;5073319;28;20208;-74
2023/07/04 11:03:53;;;;;;;16.92;7.97;;;26.10;56.10;;;;;;5072214;28;20246;-73
2023/07/04 11:06:42;;;;;;;16.10;8.05;;;24.90;56.10;;;;;;5073815;28;20205;-70
2023/07/04 11:09:33;;;;;;;17.10;8.80;;;25.20;55.00;;;;;;5073616;28;20196;-71
2023/07/04 11:12:20;;;;;;;17.08;9.02;;;25.30;57.90;;;;;;5073047;28;20196;-72
2023/07/04 11:15:17;;;;;;;21.38;9.23;;;25.50;56.60;;;;;;5073169;28;20192;-71
2023/07/04 11:18:06;;;;;;;15.65;8.50;;;25.70;55.90;;;;;;5072965;28;20302;-71
2023/07/04 11:20:54;;;;;;;18.60;9.02;;;26.10;53.80;;;;;;5072929;28;20204;-71
2023/07/04 11:23:46;;;;;;;19.42;8.27;;;26.20;52.10;;;;;;5072946;28;20201;-75
2023/07/04 11:26:49;;;;;;;15.80;8.32;;;26.00;51.70;;;;;;5072943;28;20204;-70
2023/07/04 11:29:47;;;;;;;13.27;7.28;;;25.70;52.70;;;;;;5073251;28;20254;-71
2023/07/04 11:32:54;;;;;;;15.43;7.40;;;25.60;53.80;;;;;;5072672;28;20231;-71
2023/07/04 11:35:44;;;;;;;14.95;7.53;;;25.80;54.80;;;;;;5073236;28;20205;-71
2023/07/04 11:38:31;;;;;;;16.75;6.70;;;26.20;59.80;;;;;;5072976;28;20220;-70
2023/07/04 11:41:26;;;;;;;12.63;6.35;;;26.20;56.10;;;;;;5072474;28;20227;-70
2023/07/04 11:44:19;;;;;;;11.00;5.30;;;26.30;53.80;;;;;;5072447;28;20575;-70
2023/07/04 11:47:07;;;;;;;11.63;5.43;;;25.90;56.60;;;;;;5061507;28;20201;-75
2023/07/04 11:49:56;;;;;;;12.85;5.20;;;26.30;54.60;;;;;;5052900;28;20229;-75
2023/07/04 11:52:51;;;;;;;13.40;5.88;;;26.40;52.40;;;;;;5052949;28;20278;-72
2023/07/04 11:55:38;;;;;;;9.43;5.20;;;26.10;54.30;;;;;;5052963;28;20282;-70
2023/07/04 11:58:25;;;;;;;12.60;4.95;;;26.20;53.60;;;;;;5052771;28;20220;-73
2023/07/04 12:01:12;;;;;;;8.57;4.68;;;25.80;55.30;;;;;;5052609;28;20197;-69
2023/07/04 12:04:06;;;;;;;10.75;4.63;;;25.80;56.80;;;;;;5052786;28;20691;-70
2023/07/04 12:07:03;;;;;;;8.52;4.53;;;26.70;59.00;;;;;;5052631;28;20205;-70
2023/07/04 12:09:55;;;;;;;9.15;4.60;;;26.90;55.60;;;;;;5052666;28;20637;-70
2023/07/04 12:12:42;;;;;;;11.55;4.35;;;27.20;53.20;;;;;;5052643;28;20197;-69
2023/07/04 12:15:30;;;;;;;9.23;3.88;;;27.00;50.60;;;;;;5052260;28;20193;-71
2023/07/04 12:18:20;;;;;;;8.93;3.55;;;27.20;55.00;;;;;;5052710;28;20216;-70
2023/07/04 12:21:08;;;;;;;8.90;3.95;;;27.40;52.60;;;;;;5052348;28;20201;-69
2023/07/04 12:23:55;;;;;;;5.95;3.70;;;27.30;50.00;;;;;;5052758;28;20557;-69
2023/07/04 12:26:44;;;;;;;11.20;3.33;;;27.00;54.30;;;;;;5052479;28;20552;-74
2023/07/04 12:29:31;;;;;;;10.50;4.10;;;27.20;49.70;;;;;;5052335;28;20198;-74
2023/07/04 12:32:20;;;;;;;5.10;3.53;;;27.10;51.20;;;;;;5051646;28;20236;-69
2023/07/04 12:35:08;;;;;;;7.00;3.40;;;26.70;51.00;;;;;;5052552;28;20197;-70
2023/07/04 12:37:57;;;;;;;5.30;3.10;;;27.40;52.80;;;;;;5052744;28;20225;-72
2023/07/04 12:40:45;;;;;;;5.38;2.90;;;27.50;50.30;;;;;;5052349;28;20207;-71
2023/07/04 12:43:34;;;;;;;5.30;2.58;;;27.80;51.90;;;;;;5050993;28;20197;-69
2023/07/04 12:46:21;;;;;;;2.92;2.20;;;28.10;51.50;;;;;;5056735;28;20208;-69
2023/07/04 12:49:09;;;;;;;4.35;2.35;;;27.70;51.70;;;;;;5071393;28;20232;-69
2023/07/04 12:51:58;;;;;;;7.63;2.58;;;27.70;46.70;;;;;;5071730;28;20205;-69
2023/07/04 12:54:46;;;;;;;5.88;2.55;;;27.20;49.10;;;;;;5071698;28;20682;-69
2023/07/04 12:57:33;;;;;;;6.10;2.40;;;26.40;48.60;;;;;;5071585;28;20196;-70
2023/07/04 13:00:27;;;;;;;5.18;2.67;;;26.20;51.30;;;;;;5071565;28;20199;-69
2023/07/04 13:03:17;;;;;;;4.65;2.55;;;25.60;53.30;;;;;;5071438;28;20200;-70
2023/07/04 13:06:07;;;;;;;5.35;2.20;;;25.60;55.90;;;;;;5071533;28;20197;-70
2023/07/04 13:08:55;;;;;;;3.17;1.90;;;25.80;54.30;;;;;;5071488;28;20188;-69
2023/07/04 13:11:44;;;;;;;2.03;1.38;;;26.00;52.80;;;;;;5071546;28;20196;-69
2023/07/04 13:14:31;;;;;;;4.15;1.80;;;26.70;54.00;;;;;;5071465;28;20301;-70
2023/07/04 13:17:20;;;;;;;4.10;1.73;;;26.90;52.50;;;;;;5071278;28;20562;-69
2023/07/04 13:20:11;;;;;;;11.88;1.90;;;27.30;52.30;;;;;;5071306;28;20217;-69
2023/07/04 13:23:17;;;;;;;3.83;1.67;;;27.60;53.20;;;;;;5071940;28;20273;-70
2023/07/04 13:26:04;;;;;;;5.90;1.83;;;28.00;50.70;;;;;;5072476;28;20279;-70
2023/07/04 13:28:53;;;;;;;2.10;1.55;;;27.70;49.70;;;;;;5075004;28;20273;-69
2023/07/04 13:31:40;;;;;;;5.93;1.83;;;27.40;50.40;;;;;;5074969;28;20219;-69
2023/07/04 13:34:31;;;;;;;4.78;1.80;;;27.80;50.90;;;;;;5074996;28;20199;-74
2023/07/04 13:37:18;;;;;;;3.20;1.58;;;27.90;51.10;;;;;;5074720;28;20279;-75
2023/07/04 13:40:07;;;;;;;5.75;1.80;;;28.00;48.60;;;;;;5074784;28;20882;-74
2023/07/04 13:43:08;;;;;;;4.85;1.63;;;28.20;54.50;;;;;;5075356;28;20201;-74
2023/07/04 13:45:55;;;;;;;6.35;1.83;;;28.10;49.60;;;;;;5073937;28;20655;-74
2023/07/04 13:48:43;;;;;;;2.70;1.65;;;27.90;51.50;;;;;;5055117;28;20220;-74
2023/07/04 13:51:31;;;;;;;3.92;1.70;;;28.00;50.60;;;;;;5055166;28;20224;-74
2023/07/04 13:54:19;;;;;;;4.10;1.63;;;28.30;50.20;;;;;;5055213;28;20201;-75
2023/07/04 13:57:06;;;;;;;4.50;2.03;;;28.50;51.30;;;;;;5055157;28;20205;-75
2023/07/04 13:59:53;;;;;;;2.63;1.65;;;28.00;51.00;;;;;;5054924;28;20306;-69
2023/07/04 14:02:41;;;;;;;3.63;1.55;;;27.40;48.40;;;;;;5054980;28;20205;-69
2023/07/04 14:05:28;;;;;;;3.72;1.67;;;27.40;48.90;;;;;;5054918;28;20231;-69
2023/07/04 14:08:16;;;;;;;3.05;1.50;;;26.10;51.30;;;;;;5054955;28;20220;-73
2023/07/04 14:11:05;;;;;;;3.90;2.08;;;26.00;51.60;;;;;;5055102;28;20282;-70
2023/07/04 14:13:52;;;;;;;5.18;1.98;;;25.90;52.50;;;;;;5054864;28;20328;-71
2023/07/04 14:16:40;;;;;;;4.07;1.80;;;26.00;51.20;;;;;;5054765;28;20193;-69
2023/07/04 14:19:27;;;;;;;3.10;1.73;;;25.80;53.10;;;;;;5054846;28;20249;-69
2023/07/04 14:22:14;;;;;;;3.58;1.90;;;25.80;53.70;;;;;;5054645;28;20575;-70
2023/07/04 14:25:03;;;;;;;2.78;1.65;;;26.00;53.30;;;;;;5054934;28;20675;-69
2023/07/04 14:27:50;;;;;;;3.63;1.67;;;26.20;53.50;;;;;;5054541;28;20209;-69